Time;durP1;ratioP1;P1;durP2;ratioP2;P2;SDS_P1;SDS_P2;PMS_P1;PMS_P2;Temp;Humidity;BMP_temperature;BMP_pressure;BME280_temperature;BME280_humidity;BME280_pressure;Samples;Min_cycle;Max_cycle;Signal;HPM_P1;HPM_P2
2022/02/04 00:23:59;;;;;;;;;;;;;;;5.38;100.00;100924.31;2568524;30;138396;-40
2022/02/04 00:26:33;;;;;;;;;;;;;;;5.34;100.00;100921.09;2568346;30;137937;-41
2022/02/04 00:29:14;;;;;;;;;;;;;;;5.31;100.00;100921.44;2568295;30;138581;-40
2022/02/04 00:31:55;;;;;;;;;;;;;;;5.35;100.00;100914.66;2568578;30;136869;-40
2022/02/04 00:34:24;;;;;;;;;;;;;;;5.43;100.00;100922.72;2568350;30;137415;-40
2022/02/04 00:37:18;;;;;;;;;;;;;;;5.41;100.00;100919.38;2565798;30;137030;-40
2022/02/04 00:39:55;;;;;;;;;;;;;;;5.39;100.00;100921.41;2568484;30;137123;-41
2022/02/04 00:42:23;;;;;;;;;;;;;;;5.37;100.00;100928.84;2565366;30;137303;-41
2022/02/04 00:44:58;;;;;;;;;;;;;;;5.36;100.00;100921.75;2568238;30;137488;-41
2022/02/04 00:47:54;;;;;;;;;;;;;;;5.37;100.00;100917.22;2568457;30;138272;-40
2022/02/04 00:50:36;;;;;;;;;;;;;;;5.38;100.00;100918.88;2568592;30;138475;-40
2022/02/04 00:53:13;;;;;;;;;;;;;;;5.38;100.00;100917.00;2569028;30;137001;-41
2022/02/04 00:56:03;;;;;;;;;;;;;;;5.41;100.00;100918.53;2568784;30;138637;-41
2022/02/04 01:26:18;;;;;;;;;;;;;;;5.30;100.00;100896.28;2569978;30;136731;-40
2022/02/04 01:28:48;;;;;;;;;;;;;;;5.33;100.00;100901.31;2568543;30;140593;-38
2022/02/04 01:31:18;;;;;;;;;;;;;;;5.33;100.00;100904.03;2566689;30;137871;-38
2022/02/04 01:33:47;;;;;;;;;;;;;;;5.31;100.00;100895.25;2570624;30;138456;-38
2022/02/04 01:36:15;;;;;;;;;;;;;;;5.37;100.00;100901.78;2568968;30;136895;-38
2022/02/04 01:38:42;;;;;;;;;;;;;;;5.35;100.00;100893.00;2568410;30;138242;-38
2022/02/04 01:41:11;;;;;;;;;;;;;;;5.37;100.00;100895.56;2566930;30;137733;-38
2022/02/04 01:43:39;;;;;;;;;;;;;;;5.37;100.00;100890.16;2570235;30;137399;-38
2022/02/04 01:46:08;;;;;;;;;;;;;;;5.39;100.00;100880.00;2568549;30;136794;-38
2022/02/04 01:48:37;;;;;;;;;;;;;;;5.36;100.00;100878.47;2568850;30;137834;-38
2022/02/04 01:51:07;;;;;;;;;;;;;;;5.40;100.00;100877.09;2568817;30;137340;-38
2022/02/04 01:53:34;;;;;;;;;;;;;;;5.39;100.00;100878.09;2567692;30;138319;-38
2022/02/04 01:56:04;;;;;;;;;;;;;;;5.37;100.00;100868.50;2568198;30;137359;-38
2022/02/04 01:58:32;;;;;;;;;;;;;;;5.33;100.00;100863.44;2568708;30;138485;-38
2022/02/04 02:01:00;;;;;;;;;;;;;;;5.35;100.00;100854.31;2566645;30;137936;-38
2022/02/04 02:03:28;;;;;;;;;;;;;;;5.40;100.00;100868.16;2567400;30;138264;-38
2022/02/04 02:06:01;;;;;;;;;;;;;;;5.45;100.00;100857.63;2568368;30;136782;-38
2022/02/04 02:08:29;;;;;;;;;;;;;;;5.45;100.00;100854.91;2565506;30;138467;-38
2022/02/04 02:10:56;;;;;;;;;;;;;;;5.42;100.00;100849.88;2566793;30;137298;-38
2022/02/04 02:33:34;;;;;;;;;;;;;;;5.40;100.00;100852.75;2569712;30;137009;-38
2022/02/04 02:46:42;;;;;;;;;;;;;;;5.46;100.00;100859.31;2568003;30;137378;-38
2022/02/04 02:57:24;;;;;;;;;;;;;;;5.48;100.00;100846.44;2567813;30;137423;-38
2022/02/04 02:59:58;;;;;;;;;;;;;;;5.51;100.00;100847.97;2567799;30;138779;-38
2022/02/04 03:02:26;;;;;;;;;;;;;;;5.46;100.00;100856.59;2567880;30;138411;-36
2022/02/04 03:04:54;;;;;;;;;;;;;;;5.49;100.00;100858.13;2567778;30;137018;-38
2022/02/04 03:07:22;;;;;;;;;;;;;;;5.47;100.00;100847.47;2569692;30;138429;-38
2022/02/04 03:09:50;;;;;;;;;;;;;;;5.49;100.00;100847.31;2567376;30;137099;-38
2022/02/04 03:12:18;;;;;;;;;;;;;;;5.49;100.00;100834.59;2568446;30;137580;-38
2022/02/04 03:14:46;;;;;;;;;;;;;;;5.47;100.00;100831.22;2569260;30;136856;-38
2022/02/04 03:17:14;;;;;;;;;;;;;;;5.46;100.00;100819.56;2568907;30;137135;-38
2022/02/04 03:19:47;;;;;;;;;;;;;;;5.48;100.00;100822.09;2568030;30;136890;-38
2022/02/04 03:22:15;;;;;;;;;;;;;;;5.47;100.00;100817.69;2569080;30;138527;-38
2022/02/04 03:24:48;;;;;;;;;;;;;;;5.48;100.00;100822.09;2568207;30;137314;-38
2022/02/04 03:27:18;;;;;;;;;;;;;;;5.52;100.00;100815.28;2567895;30;138167;-38
2022/02/04 03:32:21;;;;;;;;;;;;;;;5.52;100.00;100812.59;2566311;30;138990;-38
2022/02/04 03:34:49;;;;;;;;;;;;;;;5.54;100.00;100809.72;2568745;30;136965;-38
2022/02/04 03:37:17;;;;;;;;;;;;;;;5.58;100.00;100817.31;2568150;30;138122;-38
2022/02/04 03:39:45;;;;;;;;;;;;;;;5.59;100.00;100808.16;2569597;30;137360;-38
2022/02/04 03:42:12;;;;;;;;;;;;;;;5.57;100.00;100806.63;2569128;30;137224;-38
2022/02/04 03:44:40;;;;;;;;;;;;;;;5.55;100.00;100808.69;2566714;30;137657;-38
2022/02/04 03:47:08;;;;;;;;;;;;;;;5.53;100.00;100808.84;2569464;30;138323;-38
2022/02/04 03:49:36;;;;;;;;;;;;;;;5.52;100.00;100806.34;2568417;30;137042;-38
2022/02/04 03:52:04;;;;;;;;;;;;;;;5.48;100.00;100805.84;2565118;30;137973;-38
2022/02/04 03:54:31;;;;;;;;;;;;;;;5.54;100.00;100805.13;2568268;30;137066;-38
2022/02/04 03:56:59;;;;;;;;;;;;;;;5.58;100.00;100798.34;2569056;30;138377;-38
2022/02/04 03:59:28;;;;;;;;;;;;;;;5.51;100.00;100805.47;2566626;30;137136;-38
2022/02/04 04:01:56;;;;;;;;;;;;;;;5.60;100.00;100801.72;2567648;30;138514;-38
2022/02/04 04:04:30;;;;;;;;;;;;;;;5.59;100.00;100807.31;2568880;30;137119;-38
2022/02/04 04:06:58;;;;;;;;;;;;;;;5.56;100.00;100800.38;2568466;30;139267;-38
2022/02/04 04:09:27;;;;;;;;;;;;;;;5.53;100.00;100792.63;2570218;30;137073;-38
2022/02/04 04:11:55;;;;;;;;;;;;;;;5.46;100.00;100797.94;2568079;30;137441;-38
2022/02/04 04:14:23;;;;;;;;;;;;;;;5.47;100.00;100802.31;2568806;30;137389;-38
2022/02/04 04:16:51;;;;;;;;;;;;;;;5.51;100.00;100797.38;2568306;30;139006;-38
2022/02/04 04:19:19;;;;;;;;;;;;;;;5.54;100.00;100796.19;2567757;30;136784;-38
2022/02/04 04:21:47;;;;;;;;;;;;;;;5.54;100.00;100807.00;2568477;30;137358;-38
2022/02/04 04:24:15;;;;;;;;;;;;;;;5.53;100.00;100794.50;2568300;30;137001;-38
2022/02/04 04:26:42;;;;;;;;;;;;;;;5.57;100.00;100796.66;2567877;30;138438;-36
2022/02/04 04:29:10;;;;;;;;;;;;;;;5.63;100.00;100802.38;2568215;30;137560;-38
2022/02/04 04:31:38;;;;;;;;;;;;;;;5.65;100.00;100805.75;2568009;30;138102;-38
2022/02/04 04:34:06;;;;;;;;;;;;;;;5.63;100.00;100802.38;2568979;30;137900;-38
2022/02/04 04:36:34;;;;;;;;;;;;;;;5.66;100.00;100799.31;2566712;30;137346;-38
2022/02/04 04:39:12;;;;;;;;;;;;;;;5.59;100.00;100808.16;2568936;30;137093;-36
2022/02/04 05:26:14;;;;;;;;;;;;;;;5.65;100.00;100771.38;2568577;30;138396;-38
2022/02/04 05:31:10;;;;;;;;;;;;;;;5.70;100.00;100770.84;2566938;30;139139;-38
2022/02/04 05:33:38;;;;;;;;;;;;;;;5.73;100.00;100765.06;2569754;30;137188;-38
2022/02/04 05:36:08;;;;;;;;;;;;;;;5.76;100.00;100764.69;2566156;30;139625;-38
2022/02/04 05:38:37;;;;;;;;;;;;;;;5.76;100.00;100768.25;2568583;30;138345;-38
2022/02/04 05:41:07;;;;;;;;;;;;;;;5.78;100.00;100770.78;2567112;30;138446;-38
2022/02/04 05:43:39;;;;;;;;;;;;;;;5.79;100.00;100771.63;2568943;30;137283;-38
2022/02/04 05:46:14;;;;;;;;;;;;;;;5.74;100.00;100788.41;2568268;30;137559;-38
2022/02/04 05:48:47;;;;;;;;;;;;;;;5.82;100.00;100774.78;2568090;30;137214;-38
2022/02/04 05:54:39;;;;;;;;;;;;;;;5.92;100.00;100779.13;2569237;30;136982;-38
2022/02/04 05:57:06;;;;;;;;;;;;;;;5.90;100.00;100763.91;2568119;30;137121;-38
2022/02/04 06:02:36;;;;;;;;;;;;;;;5.95;100.00;100759.81;2565885;30;137122;-38
2022/02/04 06:05:17;;;;;;;;;;;;;;;5.94;100.00;100766.25;2568858;30;137346;-38
2022/02/04 06:23:54;;;;;;;;;;;;;;;5.84;100.00;100745.69;2568435;30;137386;-37
2022/02/04 06:26:22;;;;;;;;;;;;;;;5.86;100.00;100740.09;2568534;30;136795;-38
2022/02/04 06:28:51;;;;;;;;;;;;;;;5.87;100.00;100748.03;2568383;30;139358;-38
2022/02/04 06:31:21;;;;;;;;;;;;;;;5.85;100.00;100744.66;2567461;30;136952;-38
2022/02/04 06:33:49;;;;;;;;;;;;;;;5.85;100.00;100750.09;2568838;30;138121;-38
2022/02/04 06:36:17;;;;;;;;;;;;;;;5.89;100.00;100750.53;2566058;30;137310;-38
2022/02/04 06:38:45;;;;;;;;;;;;;;;5.89;100.00;100753.25;2568128;30;139066;-38
2022/02/04 06:41:13;;;;;;;;;;;;;;;5.93;100.00;100742.91;2567198;30;137905;-37
2022/02/04 06:43:41;;;;;;;;;;;;;;;5.97;100.00;100746.91;2566639;30;137783;-38
2022/02/04 06:46:08;;;;;;;;;;;;;;;5.95;100.00;100746.25;2567779;30;137098;-38
2022/02/04 06:48:36;;;;;;;;;;;;;;;5.97;100.00;100746.91;2569526;30;137104;-38
2022/02/04 06:51:04;;;;;;;;;;;;;;;5.96;100.00;100747.94;2568936;30;137059;-38
2022/02/04 06:53:32;;;;;;;;;;;;;;;5.92;100.00;100749.34;2567565;30;139019;-38
2022/02/04 06:56:00;;;;;;;;;;;;;;;5.97;100.00;100755.91;2567879;30;136986;-37
2022/02/04 06:58:28;;;;;;;;;;;;;;;5.96;100.00;100756.06;2569051;30;138996;-38
2022/02/04 07:00:56;;;;;;;;;;;;;;;6.01;100.00;100757.25;2566310;30;137514;-38
2022/02/04 07:03:24;;;;;;;;;;;;;;;6.01;100.00;100757.25;2569556;30;137609;-38
2022/02/04 07:05:56;;;;;;;;;;;;;;;5.92;100.00;100742.06;2569523;30;137261;-38
2022/02/04 07:15:09;;;;;;;;;;;;;;;6.06;100.00;100761.25;2568838;30;137759;-37
2022/02/04 07:22:07;;;;;;;;;;;;;;;6.12;100.00;100761.38;2569471;30;136885;-37
2022/02/04 07:24:34;;;;;;;;;;;;;;;6.11;100.00;100756.13;2568735;30;139224;-38
2022/02/04 07:27:02;;;;;;;;;;;;;;;6.10;100.00;100754.44;2568250;30;137944;-37
2022/02/04 07:29:30;;;;;;;;;;;;;;;6.10;100.00;100752.59;2571612;30;138460;-40
2022/02/04 07:32:02;;;;;;;;;;;;;;;6.10;100.00;100757.16;2567300;30;137172;-40
2022/02/04 07:35:02;;;;;;;;;;;;;;;6.10;100.00;100754.44;2568291;30;139096;-40
2022/02/04 07:43:04;;;;;;;;;;;;;;;6.15;100.00;100747.47;2569837;30;136965;-40
2022/02/04 07:45:33;;;;;;;;;;;;;;;6.14;100.00;100742.22;2567577;30;137431;-40
2022/02/04 07:48:02;;;;;;;;;;;;;;;6.13;100.00;100737.81;2567812;30;136947;-40
2022/02/04 07:50:30;;;;;;;;;;;;;;;6.16;100.00;100746.44;2566132;30;138740;-40
2022/02/04 07:52:58;;;;;;;;;;;;;;;6.17;100.00;100744.53;2568366;30;137024;-40
2022/02/04 07:55:26;;;;;;;;;;;;;;;6.18;100.00;100746.22;2565401;30;137899;-40
2022/02/04 07:57:54;;;;;;;;;;;;;;;6.17;100.00;100739.13;2568002;30;136841;-40
2022/02/04 08:00:22;;;;;;;;;;;;;;;6.24;100.00;100750.06;2568700;30;137945;-40
2022/02/04 08:02:51;;;;;;;;;;;;;;;6.24;100.00;100748.22;2569006;30;136915;-40
2022/02/04 08:05:24;;;;;;;;;;;;;;;6.23;100.00;100737.56;2569086;30;138955;-40
2022/02/04 08:08:13;;;;;;;;;;;;;;;6.24;100.00;100728.41;2565851;30;137134;-40
2022/02/04 08:10:54;;;;;;;;;;;;;;;6.19;100.00;100720.81;2568896;30;138275;-40
2022/02/04 08:21:12;;;;;;;;;;;;;;;6.25;100.00;100708.41;2566243;30;136995;-40
2022/02/04 08:24:09;;;;;;;;;;;;;;;6.28;100.00;100702.59;2569215;30;137365;-40
2022/02/04 08:27:03;;;;;;;;;;;;;;;6.34;100.00;100712.69;2569698;30;137368;-40
2022/02/04 08:32:59;;;;;;;;;;;;;;;6.45;100.00;100708.66;2567291;30;137759;-40
2022/02/04 08:35:48;;;;;;;;;;;;;;;6.47;100.00;100707.47;2565425;30;137811;-40
2022/02/04 08:54:43;;;;;;;;;;;;;;;6.70;100.00;100706.50;2568869;30;139411;-40
2022/02/04 09:05:00;;;;;;;;;;;;;;;6.80;100.00;100689.09;2568367;30;138220;-40
2022/02/04 09:07:34;;;;;;;;;;;;;;;6.84;100.00;100696.66;2568603;30;137524;-40
2022/02/04 09:10:11;;;;;;;;;;;;;;;6.83;100.00;100689.56;2568805;30;137287;-40
2022/02/04 09:23:26;;;;;;;;;;;;;;;6.92;100.00;100671.28;2569241;30;137885;-40
2022/02/04 09:25:54;;;;;;;;;;;;;;;6.98;100.00;100683.22;2569745;30;139262;-40
2022/02/04 09:28:22;;;;;;;;;;;;;;;6.95;100.00;100670.91;2568863;30;137142;-40
2022/02/04 09:30:50;;;;;;;;;;;;;;;6.92;100.00;100665.88;2568263;30;138579;-40
2022/02/04 09:33:18;;;;;;;;;;;;;;;6.89;100.00;100666.22;2569313;30;137236;-40
2022/02/04 09:35:46;;;;;;;;;;;;;;;6.93;100.00;100667.56;2566446;30;137487;-40
2022/02/04 09:38:14;;;;;;;;;;;;;;;6.91;100.00;100666.91;2566072;30;137218;-40
2022/02/04 09:40:45;;;;;;;;;;;;;;;6.84;100.00;100655.13;2568696;30;139052;-40
2022/02/04 09:43:12;;;;;;;;;;;;;;;6.89;100.00;100650.81;2567182;30;137085;-40
2022/02/04 09:45:40;;;;;;;;;;;;;;;6.87;100.00;100647.44;2565722;30;139799;-40
2022/02/04 09:48:11;;;;;;;;;;;;;;;6.89;100.00;100650.81;2565962;30;137203;-40
2022/02/04 09:50:44;;;;;;;;;;;;;;;6.96;100.00;100640.03;2569035;30;137272;-41
2022/02/04 10:10:16;;;;;;;;;;;;;;;7.41;100.00;100631.66;2568612;30;137000;-40
2022/02/04 10:18:12;;;;;;;;;;;;;;;7.50;100.00;100621.50;2567245;30;138129;-40
2022/02/04 10:20:41;;;;;;;;;;;;;;;7.50;100.00;100610.66;2567771;30;137244;-40
2022/02/04 10:23:10;;;;;;;;;;;;;;;7.50;100.00;100602.50;2568625;30;139183;-40
2022/02/04 10:25:42;;;;;;;;;;;;;;;7.51;100.00;100604.19;2568784;30;137965;-40
2022/02/04 10:28:28;;;;;;;;;;;;;;;7.52;100.00;100599.59;2566510;30;138511;-40
2022/02/04 10:31:06;;;;;;;;;;;;;;;7.54;100.00;100609.22;2567006;30;137225;-40
2022/02/04 10:33:55;;;;;;;;;;;;;;;7.48;100.00;100601.88;2568595;30;137774;-40
2022/02/04 10:36:40;;;;;;;;;;;;;;;7.51;100.00;100601.47;2570221;30;137186;-40
2022/02/04 10:39:31;;;;;;;;;;;;;;;7.52;100.00;100605.88;2568030;30;138283;-40
2022/02/04 10:42:09;;;;;;;;;;;;;;;7.51;100.00;100592.47;2569197;30;137252;-40
2022/02/04 10:47:52;;;;;;;;;;;;;;;7.58;100.00;100594.22;2567837;30;137690;-40
2022/02/04 11:01:15;;;;;;;;;;;;;;;7.94;100.00;100570.59;2568102;30;138352;-40
2022/02/04 11:03:53;;;;;;;;;;;;;;;7.98;100.00;100566.44;2567770;30;136704;-40
2022/02/04 11:06:42;;;;;;;;;;;;;;;8.00;100.00;100564.34;2569653;30;138391;-40
2022/02/04 11:09:58;;;;;;;;;;;;;;;7.96;99.90;100564.97;2566853;30;137338;-40
2022/02/04 11:32:12;;;;;;;;;;;;;;;8.17;93.61;100521.38;2568589;30;137079;-40
2022/02/04 11:52:05;;;;;;;;;;;;;;;7.71;93.71;100471.25;2568704;30;137374;-40
2022/02/04 11:54:43;;;;;;;;;;;;;;;7.73;93.01;100465.63;2568121;30;136766;-40
2022/02/04 11:57:13;;;;;;;;;;;;;;;7.70;91.97;100463.31;2569218;30;138172;-40
2022/02/04 11:59:43;;;;;;;;;;;;;;;7.69;92.67;100443.47;2565170;30;138040;-40
2022/02/04 12:02:24;;;;;;;;;;;;;;;7.71;92.66;100440.56;2567755;30;138172;-40
2022/02/04 12:05:07;;;;;;;;;;;;;;;7.70;92.82;100437.00;2569616;30;137142;-40
2022/02/04 12:07:42;;;;;;;;;;;;;;;7.70;92.62;100423.41;2565215;30;138678;-40
2022/02/04 12:10:13;;;;;;;;;;;;;;;7.72;93.17;100425.94;2569128;30;136843;-40
2022/02/04 12:13:10;;;;;;;;;;;;;;;7.73;93.22;100416.75;2568873;30;137419;-40
2022/02/04 12:15:58;;;;;;;;;;;;;;;7.76;92.66;100408.19;2566634;30;137139;-40
2022/02/04 12:18:30;;;;;;;;;;;;;;;7.74;92.01;100407.56;2568139;30;138372;-40
2022/02/04 12:21:00;;;;;;;;;;;;;;;7.65;92.07;100406.91;2567784;30;136776;-40
2022/02/04 12:25:58;;;;;;;;;;;;;;;7.63;93.03;100403.56;2569200;30;137949;-40
2022/02/04 12:31:51;;;;;;;;;;;;;;;7.56;93.11;100406.25;2567705;30;137528;-40
2022/02/04 12:34:21;;;;;;;;;;;;;;;7.52;92.79;100387.84;2566689;30;138369;-40
2022/02/04 12:36:54;;;;;;;;;;;;;;;7.46;93.43;100393.03;2567482;30;137962;-40
2022/02/04 12:39:23;;;;;;;;;;;;;;;7.42;94.05;100390.91;2568759;30;138315;-40
2022/02/04 12:42:01;;;;;;;;;;;;;;;7.41;93.86;100360.25;2569270;30;136957;-40
2022/02/04 12:44:33;;;;;;;;;;;;;;;7.45;94.04;100366.94;2569246;30;138504;-40
2022/02/04 12:47:02;;;;;;;;;;;;;;;7.49;93.77;100362.78;2569313;30;136745;-40
2022/02/04 12:49:31;;;;;;;;;;;;;;;7.51;94.10;100349.00;2568487;30;137462;-40
2022/02/04 12:52:16;;;;;;;;;;;;;;;7.57;92.84;100350.91;2568184;30;138092;-40
2022/02/04 12:55:04;;;;;;;;;;;;;;;7.56;92.52;100346.50;2568019;30;138596;-40
2022/02/04 12:57:42;;;;;;;;;;;;;;;7.61;92.74;100354.06;2567394;30;137023;-40
2022/02/04 13:10:57;;;;;;;;;;;;;;;7.75;90.95;100323.16;2568594;30;139111;-40
2022/02/04 13:13:26;;;;;;;;;;;;;;;7.82;91.23;100325.03;2568541;30;136697;-40
2022/02/04 13:15:55;;;;;;;;;;;;;;;7.89;90.56;100329.44;2569097;30;138352;-40
2022/02/04 13:18:25;;;;;;;;;;;;;;;7.94;91.42;100325.28;2568895;30;136925;-40
2022/02/04 13:20:57;;;;;;;;;;;;;;;8.06;90.09;100302.72;2567901;30;138175;-40
2022/02/04 13:23:30;;;;;;;;;;;;;;;8.17;91.52;100305.88;2568769;30;138079;-40
2022/02/04 13:26:02;;;;;;;;;;;;;;;8.17;89.02;100301.25;2566624;30;138257;-40
2022/02/04 13:31:00;;;;;;;;;;;;;;;8.29;89.11;100296.03;2566252;30;137196;-38
2022/02/04 13:33:40;;;;;;;;;;;;;;;8.33;88.02;100299.97;2567342;30;137523;-38
2022/02/04 13:47:00;;;;;;;;;;;;;;;8.44;88.04;100279.47;2568702;30;137221;-38
2022/02/04 13:52:09;;;;;;;;;;;;;;;8.32;87.46;100278.47;2566899;30;137736;-38
2022/02/04 13:57:15;;;;;;;;;;;;;;;8.15;90.09;100246.28;2569429;30;136678;-38
2022/02/04 13:59:58;;;;;;;;;;;;;;;8.08;89.79;100240.03;2568514;30;139295;-38
2022/02/04 14:02:33;;;;;;;;;;;;;;;8.04;89.27;100236.06;2565608;30;137277;-37
2022/02/04 14:05:03;;;;;;;;;;;;;;;8.03;89.54;100234.38;2569079;30;138390;-37
2022/02/04 14:07:33;;;;;;;;;;;;;;;8.03;89.37;100218.09;2567468;30;137331;-38
2022/02/04 14:10:13;;;;;;;;;;;;;;;8.03;88.99;100226.25;2568377;30;138438;-38
2022/02/04 14:12:42;;;;;;;;;;;;;;;8.07;88.94;100216.63;2567938;30;138019;-38
2022/02/04 14:15:09;;;;;;;;;;;;;;;8.07;88.61;100212.00;2568538;30;138184;-38
2022/02/04 14:17:39;;;;;;;;;;;;;;;8.04;87.81;100196.13;2568405;30;137817;-38
2022/02/04 14:20:07;;;;;;;;;;;;;;;8.04;88.47;100201.56;2568034;30;138168;-38
2022/02/04 14:22:35;;;;;;;;;;;;;;;8.05;88.49;100192.38;2567726;30;136897;-38
2022/02/04 14:25:05;;;;;;;;;;;;;;;7.97;87.48;100189.06;2568466;30;139260;-38
2022/02/04 14:27:32;;;;;;;;;;;;;;;7.95;88.74;100183.81;2566403;30;137709;-38
2022/02/04 14:30:05;;;;;;;;;;;;;;;7.86;88.70;100185.09;2568114;30;138516;-38
2022/02/04 14:32:47;;;;;;;;;;;;;;;7.79;87.20;100190.53;2569008;30;137044;-38
2022/02/04 14:35:44;;;;;;;;;;;;;;;7.74;88.44;100185.72;2569559;30;138394;-38
2022/02/04 14:54:44;;;;;;;;;;;;;;;7.62;87.55;100155.63;2567903;30;138403;-38
2022/02/04 15:00:30;;;;;;;;;;;;;;;7.60;88.06;100140.63;2567622;30;137081;-38
2022/02/04 15:03:16;;;;;;;;;;;;;;;7.58;88.18;100132.66;2567914;30;139275;-38
2022/02/04 15:05:48;;;;;;;;;;;;;;;7.59;88.02;100128.09;2568747;30;137027;-38
2022/02/04 15:08:19;;;;;;;;;;;;;;;7.62;89.17;100128.50;2565719;30;138188;-38
2022/02/04 15:10:48;;;;;;;;;;;;;;;7.57;87.93;100128.28;2569124;30;137078;-38
2022/02/04 15:13:17;;;;;;;;;;;;;;;7.57;90.11;100130.19;2568317;30;138308;-38
2022/02/04 15:15:45;;;;;;;;;;;;;;;7.58;90.75;100121.00;2567764;30;136819;-38
2022/02/04 15:18:14;;;;;;;;;;;;;;;7.52;91.66;100136.22;2569140;30;138979;-38
2022/02/04 15:20:42;;;;;;;;;;;;;;;7.46;92.38;100124.31;2568291;30;137837;-38
2022/02/04 15:23:13;;;;;;;;;;;;;;;7.41;91.69;100131.41;2568064;30;137076;-38
2022/02/04 15:25:41;;;;;;;;;;;;;;;7.36;94.40;100134.78;2569355;30;137646;-37
2022/02/04 15:30:43;;;;;;;;;;;;;;;7.16;98.42;100143.72;2567658;30;137143;-38
2022/02/04 15:33:11;;;;;;;;;;;;;;;7.03;99.70;100141.81;2566584;30;139216;-38
2022/02/04 15:35:39;;;;;;;;;;;;;;;6.97;100.00;100153.50;2569360;30;137156;-38
2022/02/04 15:38:09;;;;;;;;;;;;;;;6.88;100.00;100142.00;2568464;30;138381;-38
2022/02/04 15:40:37;;;;;;;;;;;;;;;6.80;100.00;100139.50;2568478;30;136934;-38
2022/02/04 15:43:05;;;;;;;;;;;;;;;6.69;100.00;100140.91;2569072;30;139389;-38
2022/02/04 15:51:39;;;;;;;;;;;;;;;6.53;100.00;100138.53;2568830;30;137204;-37
2022/02/04 15:53:52;;;;;;;;;;;;;;;6.47;100.00;100130.19;2567676;30;138788;-38
2022/02/04 15:56:46;;;;;;;;;;;;;;;6.42;100.00;100129.97;2568703;30;136836;-38
2022/02/04 16:02:04;;;;;;;;;;;;;;;6.41;100.00;100132.88;2567890;30;136965;-38
2022/02/04 16:04:39;;;;;;;;;;;;;;;6.40;100.00;100136.63;2567330;30;138721;-38
2022/02/04 16:07:07;;;;;;;;;;;;;;;6.37;100.00;100131.59;2568934;30;136937;-37
2022/02/04 16:09:35;;;;;;;;;;;;;;;6.31;100.00;100136.78;2568054;30;137887;-38
2022/02/04 16:17:16;;;;;;;;;;;;;;;6.26;100.00;100147.41;2569027;30;137198;-38
2022/02/04 16:19:54;;;;;;;;;;;;;;;6.25;100.00;100151.16;2567452;30;138273;-38
2022/02/04 16:22:41;;;;;;;;;;;;;;;6.26;100.00;100162.81;2565027;30;137307;-37
2022/02/04 19:31:50;;;;;;;;;;;;;;;1.77;100.00;100896.81;2568678;30;137826;-40
2022/02/04 19:34:18;;;;;;;;;;;;;;;1.81;100.00;100899.00;2569418;30;138597;-40
2022/02/04 19:36:46;;;;;;;;;;;;;;;1.81;100.00;100896.31;2567943;30;137217;-40
2022/02/04 19:39:15;;;;;;;;;;;;;;;1.85;100.00;100894.19;2566488;30;137281;-39
2022/02/04 19:41:50;;;;;;;;;;;;;;;1.84;100.00;100903.25;2567789;30;136931;-40
2022/02/04 19:44:18;;;;;;;;;;;;;;;1.82;100.00;100910.63;2569014;30;138011;-40
2022/02/04 19:46:52;;;;;;;;;;;;;;;1.86;100.00;100918.25;2568907;30;137242;-39
2022/02/04 19:49:26;;;;;;;;;;;;;;;1.82;100.00;100913.31;2567462;30;138372;-39
2022/02/04 19:52:01;;;;;;;;;;;;;;;1.93;100.00;100918.47;2565991;30;136802;-40
2022/02/04 19:54:47;;;;;;;;;;;;;;;1.90;100.00;100920.63;2568678;30;138384;-39
2022/02/04 20:25:01;;;;;;;;;;;;;;;1.73;100.00;100958.13;2567723;30;137373;-40
2022/02/04 20:27:29;;;;;;;;;;;;;;;1.73;100.00;100963.50;2566325;30;137735;-40
2022/02/04 20:29:57;;;;;;;;;;;;;;;1.73;100.00;100968.88;2568840;30;137308;-39
2022/02/04 20:32:25;;;;;;;;;;;;;;;1.76;100.00;100967.75;2569743;30;138285;-40
2022/02/04 20:34:53;;;;;;;;;;;;;;;1.74;100.00;100973.25;2569030;30;138251;-40
2022/02/04 20:37:21;;;;;;;;;;;;;;;1.70;100.00;100972.72;2568324;30;138272;-40
2022/02/04 20:39:57;;;;;;;;;;;;;;;1.68;100.00;100973.88;2567253;30;137441;-40
2022/02/04 20:42:25;;;;;;;;;;;;;;;1.69;100.00;100981.78;2568802;30;137373;-39
2022/02/04 20:44:54;;;;;;;;;;;;;;;1.69;100.00;100979.09;2568283;30;137086;-40
2022/02/04 20:47:23;;;;;;;;;;;;;;;1.71;100.00;100987.03;2567686;30;138426;-40
2022/02/04 20:49:52;;;;;;;;;;;;;;;1.80;100.00;100990.66;2567044;30;137845;-40
2022/02/04 20:52:22;;;;;;;;;;;;;;;1.84;100.00;101000.13;2567886;30;138463;-39
2022/02/04 20:54:50;;;;;;;;;;;;;;;1.84;100.00;101000.94;2568658;30;137260;-39
2022/02/04 20:57:18;;;;;;;;;;;;;;;1.81;100.00;101001.25;2567154;30;138383;-39
2022/02/04 20:59:46;;;;;;;;;;;;;;;1.83;100.00;101009.19;2569843;30;137036;-40
2022/02/04 21:02:14;;;;;;;;;;;;;;;1.78;100.00;101003.41;2566944;30;138996;-39
2022/02/04 21:04:44;;;;;;;;;;;;;;;1.84;100.00;101010.88;2565070;30;137343;-39
2022/02/04 21:07:38;;;;;;;;;;;;;;;1.84;100.00;101011.72;2568276;30;139188;-40
2022/02/04 21:15:39;;;;;;;;;;;;;;;1.88;100.00;101008.75;2569475;30;137971;-40
2022/02/04 21:18:11;;;;;;;;;;;;;;;1.94;100.00;101017.03;2568079;30;138244;-39
2022/02/04 21:20:40;;;;;;;;;;;;;;;1.90;100.00;101012.13;2567367;30;137417;-40
2022/02/04 21:23:10;;;;;;;;;;;;;;;1.90;100.00;101010.25;2569240;30;138199;-39
2022/02/04 21:25:38;;;;;;;;;;;;;;;1.82;100.00;101019.09;2567529;30;137534;-40
2022/02/04 21:28:09;;;;;;;;;;;;;;;1.85;100.00;101028.72;2567974;30;137669;-39
2022/02/04 21:30:38;;;;;;;;;;;;;;;1.89;100.00;101030.09;2567229;30;136907;-40
2022/02/04 21:33:13;;;;;;;;;;;;;;;1.86;100.00;101039.34;2568007;30;138488;-40
2022/02/04 21:38:27;;;;;;;;;;;;;;;1.91;100.00;101043.41;2567680;30;138363;-39
2022/02/04 21:40:55;;;;;;;;;;;;;;;1.90;100.00;101047.09;2566103;30;137997;-40
2022/02/04 21:43:22;;;;;;;;;;;;;;;1.97;100.00;101059.78;2568202;30;139294;-40
2022/02/04 21:45:56;;;;;;;;;;;;;;;2.07;100.00;101065.13;2567001;30;137906;-39
2022/02/04 21:48:23;;;;;;;;;;;;;;;2.22;100.00;101056.53;2567887;30;139193;-40
2022/02/04 21:50:53;;;;;;;;;;;;;;;2.29;100.00;101057.63;2567883;30;137093;-39
2022/02/04 21:53:20;;;;;;;;;;;;;;;2.38;100.00;101072.03;2568675;30;139397;-39
2022/02/04 21:55:48;;;;;;;;;;;;;;;2.36;100.00;101079.41;2565870;30;137147;-39
2022/02/04 21:58:16;;;;;;;;;;;;;;;2.40;100.00;101075.41;2568449;30;138484;-39
2022/02/04 22:00:45;;;;;;;;;;;;;;;2.43;100.00;101083.19;2567118;30;137608;-39
2022/02/04 22:03:13;;;;;;;;;;;;;;;2.44;100.00;101088.44;2566170;30;138240;-40
2022/02/04 22:05:40;;;;;;;;;;;;;;;2.46;100.00;101084.75;2568195;30;137085;-40
2022/02/04 22:08:13;;;;;;;;;;;;;;;2.51;100.00;101087.81;2568245;30;137246;-40
2022/02/04 22:10:55;;;;;;;;;;;;;;;2.53;100.00;101089.38;2568791;30;137199;-40
2022/02/04 22:14:20;;;;;;;;;;;;;;;2.50;100.00;101086.94;2564789;30;137454;-39
2022/02/04 22:16:37;;;;;;;;;;;;;;;2.49;100.00;101095.19;2568783;30;137207;-40
2022/02/04 22:22:21;;;;;;;;;;;;;;;2.39;100.00;101104.22;2568846;30;137167;-40
2022/02/04 22:24:39;;;;;;;;;;;;;;;2.40;100.00;101097.81;2570346;30;139326;-39
2022/02/04 22:27:11;;;;;;;;;;;;;;;2.46;100.00;101104.41;2570365;30;137289;-39
2022/02/04 22:29:49;;;;;;;;;;;;;;;2.44;100.00;101103.72;2568438;30;137740;-40
2022/02/04 22:32:38;;;;;;;;;;;;;;;2.42;100.00;101109.28;2569853;30;136719;-40
2022/02/04 22:38:24;;;;;;;;;;;;;;;2.29;100.00;101112.34;2570437;30;136770;-39
2022/02/04 22:43:53;;;;;;;;;;;;;;;2.15;100.00;101102.06;2570886;30;136958;-39
2022/02/04 22:51:46;;;;;;;;;;;;;;;2.08;100.00;101131.41;2569239;30;138378;-39
2022/02/04 22:59:19;;;;;;;;;;;;;;;1.96;100.00;101148.78;2570507;30;137905;-40
2022/02/04 23:01:48;;;;;;;;;;;;;;;2.01;100.00;101146.47;2569908;30;137033;-40
2022/02/04 23:04:20;;;;;;;;;;;;;;;1.94;100.00;101154.28;2570568;30;137143;-39